sensor_id;sensor_type;location;lat;lon;timestamp;pressure;altitude;pressure_sealevel;temperature;humidity
72548;BME280;60570;50.848;6.776;2023-08-24T00:00:11;100733.16;;;23.93;58.44
72548;BME280;60570;50.848;6.776;2023-08-24T00:01:14;100738.81;;;23.93;58.55
72548;BME280;60570;50.848;6.776;2023-08-24T00:02:15;100740.41;;;23.94;58.71
72548;BME280;60570;50.848;6.776;2023-08-24T00:03:17;100735.97;;;23.93;58.62
72548;BME280;60570;50.848;6.776;2023-08-24T00:04:17;100738.81;;;23.90;58.71
72548;BME280;60570;50.848;6.776;2023-08-24T00:05:19;100738.44;;;23.91;58.59
72548;BME280;60570;50.848;6.776;2023-08-24T00:06:21;100735.22;;;23.89;58.60
72548;BME280;60570;50.848;6.776;2023-08-24T00:07:22;100728.28;;;23.90;58.46
72548;BME280;60570;50.848;6.776;2023-08-24T00:08:23;100729.53;;;23.89;58.21
72548;BME280;60570;50.848;6.776;2023-08-24T00:09:25;100725.88;;;23.89;58.39
72548;BME280;60570;50.848;6.776;2023-08-24T00:10:26;100726.31;;;23.87;58.71
72548;BME280;60570;50.848;6.776;2023-08-24T00:11:27;100725.06;;;23.88;58.75
72548;BME280;60570;50.848;6.776;2023-08-24T00:12:29;100726.31;;;23.87;58.45
72548;BME280;60570;50.848;6.776;2023-08-24T00:13:30;100722.22;;;23.88;58.60
72548;BME280;60570;50.848;6.776;2023-08-24T00:14:31;100718.22;;;23.86;58.40
72548;BME280;60570;50.848;6.776;2023-08-24T00:15:32;100718.63;;;23.84;58.62
72548;BME280;60570;50.848;6.776;2023-08-24T00:16:34;100728.75;;;23.85;58.79
72548;BME280;60570;50.848;6.776;2023-08-24T00:17:34;100722.28;;;23.85;58.77
72548;BME280;60570;50.848;6.776;2023-08-24T00:18:36;100729.97;;;23.84;58.78
72548;BME280;60570;50.848;6.776;2023-08-24T00:19:36;100724.28;;;23.84;58.52
72548;BME280;60570;50.848;6.776;2023-08-24T00:20:38;100728.75;;;23.85;58.47
72548;BME280;60570;50.848;6.776;2023-08-24T00:21:38;100728.38;;;23.83;58.38
72548;BME280;60570;50.848;6.776;2023-08-24T00:22:40;100724.28;;;23.84;58.58
72548;BME280;60570;50.848;6.776;2023-08-24T00:23:40;100727.56;;;23.83;58.95
72548;BME280;60570;50.848;6.776;2023-08-24T00:24:43;100728.78;;;23.82;58.85
72548;BME280;60570;50.848;6.776;2023-08-24T00:25:44;100727.16;;;23.81;58.76
72548;BME280;60570;50.848;6.776;2023-08-24T00:26:45;100730.00;;;23.81;58.98
72548;BME280;60570;50.848;6.776;2023-08-24T00:27:46;100730.00;;;23.81;58.78
72548;BME280;60570;50.848;6.776;2023-08-24T00:28:49;100727.16;;;23.81;58.78
72548;BME280;60570;50.848;6.776;2023-08-24T00:29:53;100724.34;;;23.81;58.95
72548;BME280;60570;50.848;6.776;2023-08-24T00:30:53;100718.28;;;23.79;58.91
72548;BME280;60570;50.848;6.776;2023-08-24T00:31:55;100723.53;;;23.80;58.82
72548;BME280;60570;50.848;6.776;2023-08-24T00:32:55;100726.78;;;23.79;58.88
72548;BME280;60570;50.848;6.776;2023-08-24T00:33:56;100718.28;;;23.79;58.61
72548;BME280;60570;50.848;6.776;2023-08-24T00:34:57;100717.88;;;23.77;58.54
72548;BME280;60570;50.848;6.776;2023-08-24T00:36:01;100719.50;;;23.78;58.77
72548;BME280;60570;50.848;6.776;2023-08-24T00:37:02;100713.03;;;23.77;58.92
72548;BME280;60570;50.848;6.776;2023-08-24T00:38:04;100726.41;;;23.77;58.70
72548;BME280;60570;50.848;6.776;2023-08-24T00:39:04;100711.41;;;23.76;58.86
72548;BME280;60570;50.848;6.776;2023-08-24T00:40:08;100717.06;;;23.76;58.72
72548;BME280;60570;50.848;6.776;2023-08-24T00:41:09;100719.91;;;23.76;58.71
72548;BME280;60570;50.848;6.776;2023-08-24T00:42:11;100718.31;;;23.75;58.64
72548;BME280;60570;50.848;6.776;2023-08-24T00:43:15;100719.13;;;23.76;58.49
72548;BME280;60570;50.848;6.776;2023-08-24T00:44:16;100723.16;;;23.75;58.79
72548;BME280;60570;50.848;6.776;2023-08-24T00:45:17;100719.53;;;23.74;59.04
72548;BME280;60570;50.848;6.776;2023-08-24T00:46:20;100720.34;;;23.75;58.74
72548;BME280;60570;50.848;6.776;2023-08-24T00:47:20;100715.09;;;23.73;58.89
72548;BME280;60570;50.848;6.776;2023-08-24T00:48:22;100715.91;;;23.74;58.62
72548;BME280;60570;50.848;6.776;2023-08-24T00:49:26;100707.81;;;23.72;58.66
72548;BME280;60570;50.848;6.776;2023-08-24T00:50:27;100718.34;;;23.72;58.68
72548;BME280;60570;50.848;6.776;2023-08-24T00:51:28;100707.44;;;23.70;58.87
72548;BME280;60570;50.848;6.776;2023-08-24T00:52:31;100706.19;;;23.71;58.75
72548;BME280;60570;50.848;6.776;2023-08-24T00:53:31;100700.50;;;23.71;58.86
72548;BME280;60570;50.848;6.776;2023-08-24T00:54:33;100695.69;;;23.68;58.76
72548;BME280;60570;50.848;6.776;2023-08-24T00:55:37;100696.47;;;23.69;59.01
72548;BME280;60570;50.848;6.776;2023-08-24T00:56:39;100693.63;;;23.69;59.15
72548;BME280;60570;50.848;6.776;2023-08-24T00:57:40;100691.59;;;23.69;58.81
72548;BME280;60570;50.848;6.776;2023-08-24T00:58:42;100695.69;;;23.68;59.01
72548;BME280;60570;50.848;6.776;2023-08-24T00:59:43;100693.69;;;23.65;58.98
72548;BME280;60570;50.848;6.776;2023-08-24T01:00:44;100691.66;;;23.66;59.16
72548;BME280;60570;50.848;6.776;2023-08-24T01:01:46;100688.00;;;23.65;58.75
72548;BME280;60570;50.848;6.776;2023-08-24T01:02:48;100688.00;;;23.65;58.91
72548;BME280;60570;50.848;6.776;2023-08-24T01:03:51;100685.16;;;23.65;58.82
72548;BME280;60570;50.848;6.776;2023-08-24T01:04:53;100684.34;;;23.65;59.08
72548;BME280;60570;50.848;6.776;2023-08-24T01:05:53;100688.81;;;23.66;59.25
72548;BME280;60570;50.848;6.776;2023-08-24T01:06:55;100682.31;;;23.65;58.74
72548;BME280;60570;50.848;6.776;2023-08-24T01:07:56;100685.16;;;23.65;58.80
72548;BME280;60570;50.848;6.776;2023-08-24T01:08:57;100688.44;;;23.64;59.09
72548;BME280;60570;50.848;6.776;2023-08-24T01:09:58;100680.34;;;23.62;59.18
72548;BME280;60570;50.848;6.776;2023-08-24T01:11:03;100688.84;;;23.62;59.09
72548;BME280;60570;50.848;6.776;2023-08-24T01:12:10;100694.53;;;23.62;59.01
72548;BME280;60570;50.848;6.776;2023-08-24T01:13:15;100690.88;;;23.62;58.85
72548;BME280;60570;50.848;6.776;2023-08-24T01:14:21;100697.75;;;23.61;59.26
72548;BME280;60570;50.848;6.776;2023-08-24T01:15:25;100696.97;;;23.60;59.20
72548;BME280;60570;50.848;6.776;2023-08-24T01:16:30;100698.56;;;23.61;58.97
72548;BME280;60570;50.848;6.776;2023-08-24T01:17:32;100697.75;;;23.61;59.26
72548;BME280;60570;50.848;6.776;2023-08-24T01:18:35;100699.00;;;23.60;59.26
72548;BME280;60570;50.848;6.776;2023-08-24T01:19:38;100692.50;;;23.59;59.02
72548;BME280;60570;50.848;6.776;2023-08-24T01:20:39;100699.00;;;23.60;59.06
72548;BME280;60570;50.848;6.776;2023-08-24T01:21:41;100697.81;;;23.57;59.06
72548;BME280;60570;50.848;6.776;2023-08-24T01:22:44;100695.78;;;23.58;58.94
72548;BME280;60570;50.848;6.776;2023-08-24T01:23:51;100699.44;;;23.58;59.00
72548;BME280;60570;50.848;6.776;2023-08-24T01:24:57;100693.75;;;23.58;59.15
72548;BME280;60570;50.848;6.776;2023-08-24T01:26:06;100692.94;;;23.58;59.17
72548;BME280;60570;50.848;6.776;2023-08-24T01:27:08;100690.53;;;23.56;58.98
72548;BME280;60570;50.848;6.776;2023-08-24T01:28:11;100684.03;;;23.56;59.13
72548;BME280;60570;50.848;6.776;2023-08-24T01:29:13;100682.44;;;23.55;59.37
72548;BME280;60570;50.848;6.776;2023-08-24T01:30:15;100688.13;;;23.55;58.99
72548;BME280;60570;50.848;6.776;2023-08-24T01:31:17;100684.47;;;23.54;59.32
72548;BME280;60570;50.848;6.776;2023-08-24T01:32:21;100680.00;;;23.53;59.01
72548;BME280;60570;50.848;6.776;2023-08-24T01:33:22;100689.75;;;23.52;58.93
72548;BME280;60570;50.848;6.776;2023-08-24T01:34:26;100686.09;;;23.52;59.04
72548;BME280;60570;50.848;6.776;2023-08-24T01:35:27;100686.91;;;23.52;59.19
72548;BME280;60570;50.848;6.776;2023-08-24T01:36:28;100691.78;;;23.52;59.38
72548;BME280;60570;50.848;6.776;2023-08-24T01:37:29;100687.34;;;23.51;59.11
72548;BME280;60570;50.848;6.776;2023-08-24T01:38:31;100684.50;;;23.51;59.22
72548;BME280;60570;50.848;6.776;2023-08-24T01:39:35;100680.84;;;23.50;59.31
72548;BME280;60570;50.848;6.776;2023-08-24T01:40:42;100688.13;;;23.51;59.38
72548;BME280;60570;50.848;6.776;2023-08-24T01:41:49;100677.22;;;23.50;59.11
72548;BME280;60570;50.848;6.776;2023-08-24T01:42:51;100682.06;;;23.49;59.45
72548;BME280;60570;50.848;6.776;2023-08-24T01:43:56;100671.97;;;23.48;59.49
72548;BME280;60570;50.848;6.776;2023-08-24T01:44:59;100672.38;;;23.47;59.17
72548;BME280;60570;50.848;6.776;2023-08-24T01:46:04;100666.72;;;23.47;59.11
72548;BME280;60570;50.848;6.776;2023-08-24T01:47:05;100676.00;;;23.47;59.40
72548;BME280;60570;50.848;6.776;2023-08-24T01:48:10;100663.06;;;23.46;59.10
72548;BME280;60570;50.848;6.776;2023-08-24T01:49:13;100656.56;;;23.46;59.57
72548;BME280;60570;50.848;6.776;2023-08-24T01:50:15;100657.81;;;23.45;59.36
72548;BME280;60570;50.848;6.776;2023-08-24T01:51:16;100663.50;;;23.45;59.21
72548;BME280;60570;50.848;6.776;2023-08-24T01:52:18;100650.13;;;23.45;59.38
72548;BME280;60570;50.848;6.776;2023-08-24T01:53:19;100658.19;;;23.47;59.18
72548;BME280;60570;50.848;6.776;2023-08-24T01:54:21;100647.28;;;23.45;59.18
72548;BME280;60570;50.848;6.776;2023-08-24T01:55:21;100653.75;;;23.46;59.29
72548;BME280;60570;50.848;6.776;2023-08-24T01:56:22;100650.13;;;23.45;59.10
72548;BME280;60570;50.848;6.776;2023-08-24T01:57:25;100647.28;;;23.45;59.15
72548;BME280;60570;50.848;6.776;2023-08-24T01:58:25;100647.28;;;23.45;59.33
72548;BME280;60570;50.848;6.776;2023-08-24T01:59:27;100640.41;;;23.43;59.38
72548;BME280;60570;50.848;6.776;2023-08-24T02:00:28;100641.63;;;23.42;59.50
72548;BME280;60570;50.848;6.776;2023-08-24T02:01:29;100644.47;;;23.42;59.27
72548;BME280;60570;50.848;6.776;2023-08-24T02:02:30;100644.47;;;23.42;59.33
72548;BME280;60570;50.848;6.776;2023-08-24T02:03:33;100639.22;;;23.40;59.14
72548;BME280;60570;50.848;6.776;2023-08-24T02:04:33;100639.22;;;23.40;59.43
72548;BME280;60570;50.848;6.776;2023-08-24T02:05:35;100640.03;;;23.41;59.54
72548;BME280;60570;50.848;6.776;2023-08-24T02:06:35;100641.22;;;23.40;59.32
72548;BME280;60570;50.848;6.776;2023-08-24T02:07:38;100637.19;;;23.41;59.34
72548;BME280;60570;50.848;6.776;2023-08-24T02:08:39;100638.38;;;23.43;59.46
72548;BME280;60570;50.848;6.776;2023-08-24T02:09:40;100631.50;;;23.41;59.49
72548;BME280;60570;50.848;6.776;2023-08-24T02:10:41;100634.78;;;23.39;59.69
72548;BME280;60570;50.848;6.776;2023-08-24T02:11:41;100633.16;;;23.38;59.40
72548;BME280;60570;50.848;6.776;2023-08-24T02:12:44;100634.78;;;23.39;59.63
72548;BME280;60570;50.848;6.776;2023-08-24T02:13:45;100625.88;;;23.37;59.66
72548;BME280;60570;50.848;6.776;2023-08-24T02:14:46;100631.13;;;23.39;59.40
72548;BME280;60570;50.848;6.776;2023-08-24T02:15:47;100635.16;;;23.38;59.21
72548;BME280;60570;50.848;6.776;2023-08-24T02:16:49;100630.75;;;23.37;59.75
72548;BME280;60570;50.848;6.776;2023-08-24T02:17:53;100625.88;;;23.37;59.68
72548;BME280;60570;50.848;6.776;2023-08-24T02:18:53;100625.88;;;23.37;59.59
72548;BME280;60570;50.848;6.776;2023-08-24T02:19:55;100619.41;;;23.37;59.62
72548;BME280;60570;50.848;6.776;2023-08-24T02:20:55;100621.41;;;23.36;59.61
72548;BME280;60570;50.848;6.776;2023-08-24T02:21:56;100616.59;;;23.33;59.39
72548;BME280;60570;50.848;6.776;2023-08-24T02:22:57;100622.66;;;23.35;59.36
72548;BME280;60570;50.848;6.776;2023-08-24T02:23:58;100624.25;;;23.36;59.52
72548;BME280;60570;50.848;6.776;2023-08-24T02:25:00;100619.81;;;23.35;59.63
72548;BME280;60570;50.848;6.776;2023-08-24T02:26:01;100619.00;;;23.35;59.49
72548;BME280;60570;50.848;6.776;2023-08-24T02:27:03;100617.38;;;23.34;59.33
72548;BME280;60570;50.848;6.776;2023-08-24T02:28:06;100619.84;;;23.32;59.38
72548;BME280;60570;50.848;6.776;2023-08-24T02:29:06;100615.41;;;23.31;59.46
72548;BME280;60570;50.848;6.776;2023-08-24T02:30:08;100612.94;;;23.33;59.58
72548;BME280;60570;50.848;6.776;2023-08-24T02:31:09;100614.97;;;23.32;59.67
72548;BME280;60570;50.848;6.776;2023-08-24T02:32:10;100616.59;;;23.33;59.41
72548;BME280;60570;50.848;6.776;2023-08-24T02:33:11;100619.44;;;23.33;59.39
72548;BME280;60570;50.848;6.776;2023-08-24T02:34:12;100617.00;;;23.32;59.59
72548;BME280;60570;50.848;6.776;2023-08-24T02:35:13;100620.22;;;23.30;59.42
72548;BME280;60570;50.848;6.776;2023-08-24T02:36:14;100617.41;;;23.30;59.68
72548;BME280;60570;50.848;6.776;2023-08-24T02:37:15;100613.78;;;23.30;59.82
72548;BME280;60570;50.848;6.776;2023-08-24T02:38:16;100617.81;;;23.29;59.74
72548;BME280;60570;50.848;6.776;2023-08-24T02:39:17;100617.00;;;23.28;59.45
72548;BME280;60570;50.848;6.776;2023-08-24T02:40:18;100614.16;;;23.28;59.55
72548;BME280;60570;50.848;6.776;2023-08-24T02:41:19;100613.38;;;23.28;59.81
72548;BME280;60570;50.848;6.776;2023-08-24T02:42:20;100610.94;;;23.26;59.45
72548;BME280;60570;50.848;6.776;2023-08-24T02:43:23;100613.00;;;23.26;59.79
72548;BME280;60570;50.848;6.776;2023-08-24T02:44:23;100609.34;;;23.25;59.58
72548;BME280;60570;50.848;6.776;2023-08-24T02:45:25;100610.56;;;23.24;59.48
72548;BME280;60570;50.848;6.776;2023-08-24T02:46:25;100611.38;;;23.25;59.88
72548;BME280;60570;50.848;6.776;2023-08-24T02:47:27;100611.78;;;23.23;59.52
72548;BME280;60570;50.848;6.776;2023-08-24T02:48:27;100618.66;;;23.26;59.48
72548;BME280;60570;50.848;6.776;2023-08-24T02:49:30;100616.66;;;23.23;60.06
72548;BME280;60570;50.848;6.776;2023-08-24T02:50:32;100618.28;;;23.24;59.49
72548;BME280;60570;50.848;6.776;2023-08-24T02:51:32;100617.47;;;23.23;59.50
72548;BME280;60570;50.848;6.776;2023-08-24T02:52:34;100623.94;;;23.24;59.37
72548;BME280;60570;50.848;6.776;2023-08-24T02:53:34;100623.97;;;23.20;59.84
72548;BME280;60570;50.848;6.776;2023-08-24T02:54:36;100621.94;;;23.21;59.85
72548;BME280;60570;50.848;6.776;2023-08-24T02:55:37;100622.75;;;23.21;59.70
72548;BME280;60570;50.848;6.776;2023-08-24T02:56:38;100609.41;;;23.18;60.00
72548;BME280;60570;50.848;6.776;2023-08-24T02:57:39;100621.94;;;23.21;59.63
72548;BME280;60570;50.848;6.776;2023-08-24T02:58:42;100616.69;;;23.19;59.74
72548;BME280;60570;50.848;6.776;2023-08-24T02:59:42;100617.91;;;23.18;59.98
72548;BME280;60570;50.848;6.776;2023-08-24T03:00:44;100611.84;;;23.20;59.96
72548;BME280;60570;50.848;6.776;2023-08-24T03:01:45;100615.88;;;23.18;59.88
72548;BME280;60570;50.848;6.776;2023-08-24T03:02:49;100610.63;;;23.17;60.00
72548;BME280;60570;50.848;6.776;2023-08-24T03:03:50;100617.53;;;23.16;60.16
72548;BME280;60570;50.848;6.776;2023-08-24T03:04:51;100617.94;;;23.14;60.02
72548;BME280;60570;50.848;6.776;2023-08-24T03:05:55;100610.63;;;23.17;60.04
72548;BME280;60570;50.848;6.776;2023-08-24T03:06:56;100612.66;;;23.16;59.74
72548;BME280;60570;50.848;6.776;2023-08-24T03:07:57;100611.06;;;23.15;59.84
72548;BME280;60570;50.848;6.776;2023-08-24T03:09:01;100610.25;;;23.15;59.74
72548;BME280;60570;50.848;6.776;2023-08-24T03:10:04;100613.50;;;23.13;60.08
72548;BME280;60570;50.848;6.776;2023-08-24T03:11:05;100611.09;;;23.12;59.77
72548;BME280;60570;50.848;6.776;2023-08-24T03:12:05;100608.66;;;23.14;60.08
72548;BME280;60570;50.848;6.776;2023-08-24T03:13:07;100615.53;;;23.13;60.00
72548;BME280;60570;50.848;6.776;2023-08-24T03:14:09;100611.09;;;23.12;59.76
72548;BME280;60570;50.848;6.776;2023-08-24T03:15:10;100616.75;;;23.12;60.01
72548;BME280;60570;50.848;6.776;2023-08-24T03:16:11;100612.69;;;23.13;59.71
72548;BME280;60570;50.848;6.776;2023-08-24T03:17:12;100620.81;;;23.11;59.80
72548;BME280;60570;50.848;6.776;2023-08-24T03:18:13;100617.97;;;23.11;60.26
72548;BME280;60570;50.848;6.776;2023-08-24T03:19:15;100625.66;;;23.10;60.02
72548;BME280;60570;50.848;6.776;2023-08-24T03:20:18;100618.41;;;23.09;59.88
72548;BME280;60570;50.848;6.776;2023-08-24T03:21:20;100616.38;;;23.10;60.04
72548;BME280;60570;50.848;6.776;2023-08-24T03:22:20;100620.41;;;23.09;60.16
72548;BME280;60570;50.848;6.776;2023-08-24T03:23:22;100619.59;;;23.08;59.98
72548;BME280;60570;50.848;6.776;2023-08-24T03:24:23;100628.09;;;23.08;59.83
72548;BME280;60570;50.848;6.776;2023-08-24T03:25:24;100630.94;;;23.08;59.87
72548;BME280;60570;50.848;6.776;2023-08-24T03:26:28;100633.00;;;23.08;60.12
72548;BME280;60570;50.848;6.776;2023-08-24T03:27:30;100633.00;;;23.08;59.95
72548;BME280;60570;50.848;6.776;2023-08-24T03:28:30;100631.75;;;23.09;60.22
72548;BME280;60570;50.848;6.776;2023-08-24T03:29:32;100641.50;;;23.08;59.79
72548;BME280;60570;50.848;6.776;2023-08-24T03:30:35;100645.13;;;23.08;59.87
72548;BME280;60570;50.848;6.776;2023-08-24T03:31:35;100647.56;;;23.06;59.73
72548;BME280;60570;50.848;6.776;2023-08-24T03:32:37;100643.94;;;23.06;60.19
72548;BME280;60570;50.848;6.776;2023-08-24T03:33:39;100645.97;;;23.05;60.24
72548;BME280;60570;50.848;6.776;2023-08-24T03:34:41;100654.47;;;23.05;60.03
72548;BME280;60570;50.848;6.776;2023-08-24T03:35:42;100667.00;;;23.04;60.15
72548;BME280;60570;50.848;6.776;2023-08-24T03:36:42;100667.00;;;23.04;60.10
72548;BME280;60570;50.848;6.776;2023-08-24T03:37:44;100673.91;;;23.03;60.17
72548;BME280;60570;50.848;6.776;2023-08-24T03:38:44;100672.69;;;23.04;59.83
72548;BME280;60570;50.848;6.776;2023-08-24T03:39:46;100676.75;;;23.03;60.26
72548;BME280;60570;50.848;6.776;2023-08-24T03:40:46;100677.56;;;23.04;60.17
72548;BME280;60570;50.848;6.776;2023-08-24T03:41:47;100684.00;;;23.04;60.06
72548;BME280;60570;50.848;6.776;2023-08-24T03:42:50;100680.41;;;23.04;59.97
72548;BME280;60570;50.848;6.776;2023-08-24T03:43:50;100681.59;;;23.03;60.17
72548;BME280;60570;50.848;6.776;2023-08-24T03:44:56;100692.16;;;23.02;60.06
72548;BME280;60570;50.848;6.776;2023-08-24T03:45:57;100692.16;;;23.02;60.01
72548;BME280;60570;50.848;6.776;2023-08-24T03:46:58;100699.03;;;23.01;60.21
72548;BME280;60570;50.848;6.776;2023-08-24T03:47:59;100705.50;;;23.02;60.02
72548;BME280;60570;50.848;6.776;2023-08-24T03:49:00;100699.47;;;23.00;60.11
72548;BME280;60570;50.848;6.776;2023-08-24T03:50:01;100705.94;;;23.00;60.00
72548;BME280;60570;50.848;6.776;2023-08-24T03:51:03;100690.94;;;23.00;59.98
72548;BME280;60570;50.848;6.776;2023-08-24T03:52:03;100703.88;;;23.01;59.99
72548;BME280;60570;50.848;6.776;2023-08-24T03:53:06;100705.53;;;22.98;59.97
72548;BME280;60570;50.848;6.776;2023-08-24T03:54:06;100701.47;;;22.99;60.26
72548;BME280;60570;50.848;6.776;2023-08-24T03:55:08;100697.81;;;22.99;60.26
72548;BME280;60570;50.848;6.776;2023-08-24T03:56:09;100701.50;;;22.96;60.21
72548;BME280;60570;50.848;6.776;2023-08-24T03:57:11;100702.72;;;22.98;60.13
72548;BME280;60570;50.848;6.776;2023-08-24T03:58:11;100694.22;;;22.98;60.24
72548;BME280;60570;50.848;6.776;2023-08-24T03:59:13;100696.22;;;22.98;60.39
72548;BME280;60570;50.848;6.776;2023-08-24T04:00:15;100705.94;;;22.97;60.45
72548;BME280;60570;50.848;6.776;2023-08-24T04:01:17;100698.25;;;22.97;60.17
72548;BME280;60570;50.848;6.776;2023-08-24T04:02:18;100695.84;;;22.96;60.13
72548;BME280;60570;50.848;6.776;2023-08-24T04:03:19;100699.88;;;22.95;60.17
72548;BME280;60570;50.848;6.776;2023-08-24T04:04:20;100689.34;;;22.95;60.24
72548;BME280;60570;50.848;6.776;2023-08-24T04:05:21;100688.97;;;22.93;60.17
72548;BME280;60570;50.848;6.776;2023-08-24T04:06:22;100678.88;;;22.92;60.56
72548;BME280;60570;50.848;6.776;2023-08-24T04:07:24;100679.25;;;22.91;60.31
72548;BME280;60570;50.848;6.776;2023-08-24T04:08:24;100678.47;;;22.90;60.48
72548;BME280;60570;50.848;6.776;2023-08-24T04:09:25;100680.50;;;22.90;60.66
72548;BME280;60570;50.848;6.776;2023-08-24T04:10:26;100678.03;;;22.92;60.23
72548;BME280;60570;50.848;6.776;2023-08-24T04:11:27;100677.66;;;22.90;60.52
72548;BME280;60570;50.848;6.776;2023-08-24T04:12:31;100681.31;;;22.90;60.51
72548;BME280;60570;50.848;6.776;2023-08-24T04:13:31;100679.69;;;22.89;60.41
72548;BME280;60570;50.848;6.776;2023-08-24T04:14:33;100679.69;;;22.89;60.43
72548;BME280;60570;50.848;6.776;2023-08-24T04:15:35;100668.75;;;22.88;60.29
72548;BME280;60570;50.848;6.776;2023-08-24T04:16:36;100670.00;;;22.87;60.35
72548;BME280;60570;50.848;6.776;2023-08-24T04:17:40;100667.94;;;22.87;60.43
72548;BME280;60570;50.848;6.776;2023-08-24T04:18:41;100665.94;;;22.88;60.43
72548;BME280;60570;50.848;6.776;2023-08-24T04:19:42;100669.56;;;22.88;60.35
72548;BME280;60570;50.848;6.776;2023-08-24T04:20:44;100673.19;;;22.89;60.69
72548;BME280;60570;50.848;6.776;2023-08-24T04:21:44;100673.63;;;22.87;60.68
72548;BME280;60570;50.848;6.776;2023-08-24T04:22:46;100681.34;;;22.87;60.53
72548;BME280;60570;50.848;6.776;2023-08-24T04:23:46;100671.59;;;22.88;60.70
72548;BME280;60570;50.848;6.776;2023-08-24T04:24:48;100667.16;;;22.87;60.65
72548;BME280;60570;50.848;6.776;2023-08-24T04:25:52;100664.72;;;22.85;60.36
72548;BME280;60570;50.848;6.776;2023-08-24T04:27:05;100663.94;;;22.85;60.37
72548;BME280;60570;50.848;6.776;2023-08-24T04:28:06;100651.78;;;22.84;60.53
72548;BME280;60570;50.848;6.776;2023-08-24T04:29:08;100661.88;;;22.85;60.78
72548;BME280;60570;50.848;6.776;2023-08-24T04:30:08;100653.38;;;22.85;60.60
72548;BME280;60570;50.848;6.776;2023-08-24T04:31:15;100657.47;;;22.84;60.62
72548;BME280;60570;50.848;6.776;2023-08-24T04:32:16;100653.38;;;22.85;60.32
72548;BME280;60570;50.848;6.776;2023-08-24T04:33:18;100654.63;;;22.84;60.88
72548;BME280;60570;50.848;6.776;2023-08-24T04:34:19;100647.31;;;22.83;60.43
72548;BME280;60570;50.848;6.776;2023-08-24T04:35:20;100641.66;;;22.83;60.37
72548;BME280;60570;50.848;6.776;2023-08-24T04:36:21;100631.56;;;22.82;60.54
72548;BME280;60570;50.848;6.776;2023-08-24T04:37:22;100612.94;;;22.81;60.63
72548;BME280;60570;50.848;6.776;2023-08-24T04:38:23;100608.09;;;22.82;60.85
72548;BME280;60570;50.848;6.776;2023-08-24T04:39:25;100606.50;;;22.81;60.54
72548;BME280;60570;50.848;6.776;2023-08-24T04:40:27;100616.59;;;22.82;60.79
72548;BME280;60570;50.848;6.776;2023-08-24T04:41:29;100612.94;;;22.81;60.56
72548;BME280;60570;50.848;6.776;2023-08-24T04:42:30;100619.03;;;22.80;60.92
72548;BME280;60570;50.848;6.776;2023-08-24T04:43:31;100617.81;;;22.81;60.82
72548;BME280;60570;50.848;6.776;2023-08-24T04:44:32;100619.03;;;22.80;60.64
72548;BME280;60570;50.848;6.776;2023-08-24T04:45:33;100626.72;;;22.79;60.90
72548;BME280;60570;50.848;6.776;2023-08-24T04:46:36;100616.63;;;22.78;60.84
72548;BME280;60570;50.848;6.776;2023-08-24T04:47:37;100611.75;;;22.79;61.10
72548;BME280;60570;50.848;6.776;2023-08-24T04:48:39;100610.94;;;22.78;60.78
72548;BME280;60570;50.848;6.776;2023-08-24T04:49:39;100599.63;;;22.78;60.93
72548;BME280;60570;50.848;6.776;2023-08-24T04:50:41;100590.31;;;22.78;60.91
72548;BME280;60570;50.848;6.776;2023-08-24T04:51:42;100580.22;;;22.77;60.90
72548;BME280;60570;50.848;6.776;2023-08-24T04:52:43;100587.09;;;22.76;60.80
72548;BME280;60570;50.848;6.776;2023-08-24T04:53:45;100591.94;;;22.75;61.15
72548;BME280;60570;50.848;6.776;2023-08-24T04:54:46;100585.47;;;22.75;61.01
72548;BME280;60570;50.848;6.776;2023-08-24T04:55:47;100589.53;;;22.74;61.06
72548;BME280;60570;50.848;6.776;2023-08-24T04:56:48;100585.47;;;22.75;61.15
72548;BME280;60570;50.848;6.776;2023-08-24T04:57:49;100587.94;;;22.73;61.10
72548;BME280;60570;50.848;6.776;2023-08-24T04:58:52;100581.03;;;22.74;61.09
72548;BME280;60570;50.848;6.776;2023-08-24T04:59:54;100587.13;;;22.72;61.01
72548;BME280;60570;50.848;6.776;2023-08-24T05:00:56;100585.50;;;22.71;61.27
72548;BME280;60570;50.848;6.776;2023-08-24T05:01:58;100592.38;;;22.70;61.31
72548;BME280;60570;50.848;6.776;2023-08-24T05:02:59;100592.38;;;22.70;61.32
72548;BME280;60570;50.848;6.776;2023-08-24T05:04:00;100598.88;;;22.71;61.40
72548;BME280;60570;50.848;6.776;2023-08-24T05:05:01;100586.31;;;22.72;61.35
72548;BME280;60570;50.848;6.776;2023-08-24T05:06:02;100597.25;;;22.73;61.49
72548;BME280;60570;50.848;6.776;2023-08-24T05:07:04;100592.78;;;22.72;61.37
72548;BME280;60570;50.848;6.776;2023-08-24T05:08:06;100585.13;;;22.69;61.50
72548;BME280;60570;50.848;6.776;2023-08-24T05:09:10;100579.47;;;22.69;61.18
72548;BME280;60570;50.848;6.776;2023-08-24T05:10:10;100576.63;;;22.69;61.57
72548;BME280;60570;50.848;6.776;2023-08-24T05:11:12;100576.19;;;22.71;61.33
72548;BME280;60570;50.848;6.776;2023-08-24T05:12:14;100562.03;;;22.71;61.56
72548;BME280;60570;50.848;6.776;2023-08-24T05:13:15;100557.97;;;22.72;61.62
72548;BME280;60570;50.848;6.776;2023-08-24T05:14:16;100548.69;;;22.71;61.26
72548;BME280;60570;50.848;6.776;2023-08-24T05:15:17;100543.41;;;22.70;61.46
72548;BME280;60570;50.848;6.776;2023-08-24T05:16:19;100536.16;;;22.69;61.66
72548;BME280;60570;50.848;6.776;2023-08-24T05:17:21;100531.69;;;22.68;61.40
72548;BME280;60570;50.848;6.776;2023-08-24T05:18:27;100536.59;;;22.67;61.48
72548;BME280;60570;50.848;6.776;2023-08-24T05:19:28;100532.13;;;22.66;61.74
72548;BME280;60570;50.848;6.776;2023-08-24T05:20:29;100538.59;;;22.67;61.57
72548;BME280;60570;50.848;6.776;2023-08-24T05:21:31;100539.41;;;22.67;61.39
72548;BME280;60570;50.848;6.776;2023-08-24T05:22:32;100536.59;;;22.67;61.46